Aviation Digital Data Service (ADDS)

Output produced by METARs form (1645 UTC 16 June 2019)
found at http://www.aviationweather.gov/metar/data/
 
Forecast for: VTUQ (NAKHON RATCHASIM, TH)
Text: TAF VTUQ 161100Z 1612/1712 23006KT 9000 SCT025
Forecast period: 1200 UTC 16 June 2019 to 1200 UTC 17 June 2019
Forecast type: FROM: standard forecast or significant change
Winds: from the SW (230 degrees) at 7 MPH (6 knots; 3.1 m/s)
Visibility: 6 miles (9 km)
Ceiling: at least 12,000 feet AGL
Clouds: scattered clouds at 2500 feet AGL
Weather: no significant weather forecast for this period
Text: TEMPO 1708/1712 VRB15G25KT 5000 TSRA FEW018CB BKN025
Forecast period: 0800 to 1200 UTC 17 June 2019
Forecast type: TEMPORARY: The following changes expected for less than half the time period
Winds: variable direction winds at 17 MPH (15 knots; 7.7 m/s)
gusting to 29 MPH (25 knots; 12.9 m/s)
Visibility: 3 miles (5 km)
Ceiling: 2500 feet AGL
Clouds: few clouds at 1800 feet AGL
broken clouds at 2500 feet AGL
Weather: TSRA  (rain associated with thunderstorm(s))